sensor_id;sensor_type;location;lat;lon;timestamp;P1;durP1;ratioP1;P2;durP2;ratioP2
18336;SDS011;9294;51.106;7.028;2022-08-21T00:02:16;6.40;;;6.00;;
18336;SDS011;9294;51.106;7.028;2022-08-21T00:04:43;5.53;;;5.18;;
18336;SDS011;9294;51.106;7.028;2022-08-21T00:07:10;5.55;;;5.15;;
18336;SDS011;9294;51.106;7.028;2022-08-21T00:09:37;5.80;;;5.43;;
18336;SDS011;9294;51.106;7.028;2022-08-21T00:12:05;6.82;;;6.30;;
18336;SDS011;9294;51.106;7.028;2022-08-21T00:14:32;6.03;;;5.60;;
18336;SDS011;9294;51.106;7.028;2022-08-21T00:16:59;5.82;;;5.32;;
18336;SDS011;9294;51.106;7.028;2022-08-21T00:19:28;6.20;;;5.80;;
18336;SDS011;9294;51.106;7.028;2022-08-21T00:21:55;5.35;;;5.05;;
18336;SDS011;9294;51.106;7.028;2022-08-21T00:24:22;5.28;;;4.80;;
18336;SDS011;9294;51.106;7.028;2022-08-21T00:26:50;5.70;;;5.40;;
18336;SDS011;9294;51.106;7.028;2022-08-21T00:29:17;5.38;;;5.05;;
18336;SDS011;9294;51.106;7.028;2022-08-21T00:31:44;5.90;;;5.60;;
18336;SDS011;9294;51.106;7.028;2022-08-21T00:34:12;5.38;;;5.07;;
18336;SDS011;9294;51.106;7.028;2022-08-21T00:36:40;5.32;;;5.03;;
18336;SDS011;9294;51.106;7.028;2022-08-21T00:39:07;5.40;;;5.00;;
18336;SDS011;9294;51.106;7.028;2022-08-21T00:41:35;5.47;;;5.18;;
18336;SDS011;9294;51.106;7.028;2022-08-21T00:44:04;5.85;;;5.55;;
18336;SDS011;9294;51.106;7.028;2022-08-21T00:46:31;6.13;;;5.72;;
18336;SDS011;9294;51.106;7.028;2022-08-21T00:48:58;5.40;;;5.10;;
18336;SDS011;9294;51.106;7.028;2022-08-21T00:51:35;5.00;;;4.70;;
18336;SDS011;9294;51.106;7.028;2022-08-21T00:54:03;5.53;;;5.18;;
18336;SDS011;9294;51.106;7.028;2022-08-21T00:56:31;5.82;;;5.35;;
18336;SDS011;9294;51.106;7.028;2022-08-21T00:58:58;5.50;;;5.20;;
18336;SDS011;9294;51.106;7.028;2022-08-21T01:01:26;5.68;;;5.28;;
18336;SDS011;9294;51.106;7.028;2022-08-21T01:03:53;5.78;;;5.47;;
18336;SDS011;9294;51.106;7.028;2022-08-21T01:06:20;5.03;;;4.75;;
18336;SDS011;9294;51.106;7.028;2022-08-21T01:08:47;5.72;;;5.32;;
18336;SDS011;9294;51.106;7.028;2022-08-21T01:11:16;6.10;;;5.72;;
18336;SDS011;9294;51.106;7.028;2022-08-21T01:13:44;5.25;;;4.95;;
18336;SDS011;9294;51.106;7.028;2022-08-21T01:16:13;4.78;;;4.47;;
18336;SDS011;9294;51.106;7.028;2022-08-21T01:18:42;5.63;;;5.32;;
18336;SDS011;9294;51.106;7.028;2022-08-21T01:21:12;4.75;;;4.45;;
18336;SDS011;9294;51.106;7.028;2022-08-21T01:23:40;5.25;;;5.00;;
18336;SDS011;9294;51.106;7.028;2022-08-21T01:26:07;5.30;;;5.00;;
18336;SDS011;9294;51.106;7.028;2022-08-21T01:28:37;5.45;;;5.15;;
18336;SDS011;9294;51.106;7.028;2022-08-21T01:31:07;5.40;;;5.07;;
18336;SDS011;9294;51.106;7.028;2022-08-21T01:33:36;5.22;;;4.93;;
18336;SDS011;9294;51.106;7.028;2022-08-21T01:36:03;5.70;;;5.40;;
18336;SDS011;9294;51.106;7.028;2022-08-21T01:38:32;5.38;;;5.07;;
18336;SDS011;9294;51.106;7.028;2022-08-21T01:40:59;5.50;;;5.20;;
18336;SDS011;9294;51.106;7.028;2022-08-21T01:43:26;5.38;;;5.00;;
18336;SDS011;9294;51.106;7.028;2022-08-21T01:45:53;5.70;;;5.40;;
18336;SDS011;9294;51.106;7.028;2022-08-21T01:48:20;4.82;;;4.63;;
18336;SDS011;9294;51.106;7.028;2022-08-21T01:50:47;4.95;;;4.65;;
18336;SDS011;9294;51.106;7.028;2022-08-21T01:53:14;5.35;;;5.05;;
18336;SDS011;9294;51.106;7.028;2022-08-21T01:55:42;4.72;;;4.43;;
18336;SDS011;9294;51.106;7.028;2022-08-21T01:58:09;5.45;;;5.15;;
18336;SDS011;9294;51.106;7.028;2022-08-21T02:00:36;5.03;;;4.72;;
18336;SDS011;9294;51.106;7.028;2022-08-21T02:03:03;5.03;;;4.72;;
18336;SDS011;9294;51.106;7.028;2022-08-21T02:05:30;4.65;;;4.45;;
18336;SDS011;9294;51.106;7.028;2022-08-21T02:07:57;6.50;;;6.00;;
18336;SDS011;9294;51.106;7.028;2022-08-21T02:10:25;4.90;;;4.60;;
18336;SDS011;9294;51.106;7.028;2022-08-21T02:12:56;5.13;;;4.82;;
18336;SDS011;9294;51.106;7.028;2022-08-21T02:15:24;5.88;;;5.57;;
18336;SDS011;9294;51.106;7.028;2022-08-21T02:17:52;4.78;;;4.47;;
18336;SDS011;9294;51.106;7.028;2022-08-21T02:20:23;5.47;;;5.07;;
18336;SDS011;9294;51.106;7.028;2022-08-21T02:22:50;4.95;;;4.72;;
18336;SDS011;9294;51.106;7.028;2022-08-21T02:25:18;4.60;;;4.32;;
18336;SDS011;9294;51.106;7.028;2022-08-21T02:27:46;4.93;;;4.65;;
18336;SDS011;9294;51.106;7.028;2022-08-21T02:30:15;4.93;;;4.63;;
18336;SDS011;9294;51.106;7.028;2022-08-21T02:32:43;4.85;;;4.55;;
18336;SDS011;9294;51.106;7.028;2022-08-21T02:35:10;4.85;;;4.55;;
18336;SDS011;9294;51.106;7.028;2022-08-21T02:37:42;4.40;;;4.10;;
18336;SDS011;9294;51.106;7.028;2022-08-21T02:40:10;4.60;;;4.30;;
18336;SDS011;9294;51.106;7.028;2022-08-21T02:42:37;4.80;;;4.60;;
18336;SDS011;9294;51.106;7.028;2022-08-21T02:45:05;5.10;;;4.80;;
18336;SDS011;9294;51.106;7.028;2022-08-21T02:47:34;4.65;;;4.35;;
18336;SDS011;9294;51.106;7.028;2022-08-21T02:50:01;5.85;;;5.43;;
18336;SDS011;9294;51.106;7.028;2022-08-21T02:52:28;4.82;;;4.60;;
18336;SDS011;9294;51.106;7.028;2022-08-21T02:54:55;5.03;;;4.72;;
18336;SDS011;9294;51.106;7.028;2022-08-21T02:57:22;5.25;;;4.85;;
18336;SDS011;9294;51.106;7.028;2022-08-21T02:59:48;4.78;;;4.53;;
18336;SDS011;9294;51.106;7.028;2022-08-21T03:02:15;5.25;;;4.95;;
18336;SDS011;9294;51.106;7.028;2022-08-21T03:04:43;5.03;;;4.80;;
18336;SDS011;9294;51.106;7.028;2022-08-21T03:07:10;4.97;;;4.68;;
18336;SDS011;9294;51.106;7.028;2022-08-21T03:09:37;4.68;;;4.38;;
18336;SDS011;9294;51.106;7.028;2022-08-21T03:12:04;5.00;;;4.70;;
18336;SDS011;9294;51.106;7.028;2022-08-21T03:14:31;4.70;;;4.50;;
18336;SDS011;9294;51.106;7.028;2022-08-21T03:16:58;4.78;;;4.47;;
18336;SDS011;9294;51.106;7.028;2022-08-21T03:19:24;5.03;;;4.72;;
18336;SDS011;9294;51.106;7.028;2022-08-21T03:21:53;4.97;;;4.68;;
18336;SDS011;9294;51.106;7.028;2022-08-21T03:24:19;5.47;;;5.18;;
18336;SDS011;9294;51.106;7.028;2022-08-21T03:26:46;4.72;;;4.47;;
18336;SDS011;9294;51.106;7.028;2022-08-21T03:29:13;4.10;;;3.90;;
18336;SDS011;9294;51.106;7.028;2022-08-21T03:31:40;4.35;;;4.15;;
18336;SDS011;9294;51.106;7.028;2022-08-21T03:34:07;4.30;;;4.10;;
18336;SDS011;9294;51.106;7.028;2022-08-21T03:36:34;4.85;;;4.55;;
18336;SDS011;9294;51.106;7.028;2022-08-21T03:39:02;4.85;;;4.55;;
18336;SDS011;9294;51.106;7.028;2022-08-21T03:41:29;4.57;;;4.30;;
18336;SDS011;9294;51.106;7.028;2022-08-21T03:43:56;4.47;;;4.28;;
18336;SDS011;9294;51.106;7.028;2022-08-21T03:46:24;4.32;;;4.10;;
18336;SDS011;9294;51.106;7.028;2022-08-21T03:48:51;4.70;;;4.47;;
18336;SDS011;9294;51.106;7.028;2022-08-21T03:51:18;4.55;;;4.35;;
18336;SDS011;9294;51.106;7.028;2022-08-21T03:53:45;4.40;;;4.20;;
18336;SDS011;9294;51.106;7.028;2022-08-21T03:56:13;4.22;;;4.03;;
18336;SDS011;9294;51.106;7.028;2022-08-21T03:58:41;4.57;;;4.38;;
18336;SDS011;9294;51.106;7.028;2022-08-21T04:01:09;4.43;;;4.22;;
18336;SDS011;9294;51.106;7.028;2022-08-21T04:03:36;4.43;;;4.22;;
18336;SDS011;9294;51.106;7.028;2022-08-21T04:06:04;4.68;;;4.38;;
18336;SDS011;9294;51.106;7.028;2022-08-21T04:08:31;4.75;;;4.53;;
18336;SDS011;9294;51.106;7.028;2022-08-21T04:10:58;4.60;;;4.40;;
18336;SDS011;9294;51.106;7.028;2022-08-21T04:13:27;4.25;;;4.05;;
18336;SDS011;9294;51.106;7.028;2022-08-21T04:15:54;4.80;;;4.38;;
18336;SDS011;9294;51.106;7.028;2022-08-21T04:18:23;4.45;;;4.25;;
18336;SDS011;9294;51.106;7.028;2022-08-21T04:20:50;4.05;;;3.85;;
18336;SDS011;9294;51.106;7.028;2022-08-21T04:23:19;4.32;;;4.13;;
18336;SDS011;9294;51.106;7.028;2022-08-21T04:25:47;4.35;;;4.05;;
18336;SDS011;9294;51.106;7.028;2022-08-21T04:28:14;4.00;;;3.80;;
18336;SDS011;9294;51.106;7.028;2022-08-21T04:30:42;4.47;;;4.28;;
18336;SDS011;9294;51.106;7.028;2022-08-21T04:33:09;4.88;;;4.57;;
18336;SDS011;9294;51.106;7.028;2022-08-21T04:35:36;4.88;;;4.57;;
18336;SDS011;9294;51.106;7.028;2022-08-21T04:38:03;4.53;;;4.32;;
18336;SDS011;9294;51.106;7.028;2022-08-21T04:40:30;4.22;;;4.03;;
18336;SDS011;9294;51.106;7.028;2022-08-21T04:42:57;4.40;;;4.20;;
18336;SDS011;9294;51.106;7.028;2022-08-21T04:45:29;4.75;;;4.45;;
18336;SDS011;9294;51.106;7.028;2022-08-21T04:47:59;4.53;;;4.25;;
18336;SDS011;9294;51.106;7.028;2022-08-21T04:50:29;4.10;;;3.90;;
18336;SDS011;9294;51.106;7.028;2022-08-21T04:52:56;4.18;;;3.97;;
18336;SDS011;9294;51.106;7.028;2022-08-21T04:55:24;4.47;;;4.18;;
18336;SDS011;9294;51.106;7.028;2022-08-21T04:57:53;4.53;;;4.32;;
18336;SDS011;9294;51.106;7.028;2022-08-21T05:00:21;4.28;;;4.07;;
18336;SDS011;9294;51.106;7.028;2022-08-21T05:02:49;4.43;;;4.22;;
18336;SDS011;9294;51.106;7.028;2022-08-21T05:05:20;4.45;;;4.22;;
18336;SDS011;9294;51.106;7.028;2022-08-21T05:07:47;4.47;;;4.28;;
18336;SDS011;9294;51.106;7.028;2022-08-21T05:10:15;5.05;;;4.75;;
18336;SDS011;9294;51.106;7.028;2022-08-21T05:12:42;3.92;;;3.80;;
18336;SDS011;9294;51.106;7.028;2022-08-21T05:15:10;4.60;;;4.40;;
18336;SDS011;9294;51.106;7.028;2022-08-21T05:17:37;4.28;;;4.07;;
18336;SDS011;9294;51.106;7.028;2022-08-21T05:20:04;4.55;;;4.35;;
18336;SDS011;9294;51.106;7.028;2022-08-21T05:22:33;4.95;;;4.70;;
18336;SDS011;9294;51.106;7.028;2022-08-21T05:25:00;4.40;;;4.10;;
18336;SDS011;9294;51.106;7.028;2022-08-21T05:27:27;4.47;;;4.18;;
18336;SDS011;9294;51.106;7.028;2022-08-21T05:29:55;4.25;;;4.05;;
18336;SDS011;9294;51.106;7.028;2022-08-21T05:32:22;4.93;;;4.63;;
18336;SDS011;9294;51.106;7.028;2022-08-21T05:34:49;3.97;;;3.78;;
18336;SDS011;9294;51.106;7.028;2022-08-21T05:37:16;4.70;;;4.45;;
18336;SDS011;9294;51.106;7.028;2022-08-21T05:39:44;4.00;;;3.80;;
18336;SDS011;9294;51.106;7.028;2022-08-21T05:42:11;4.38;;;4.13;;
18336;SDS011;9294;51.106;7.028;2022-08-21T05:44:38;4.60;;;4.40;;
18336;SDS011;9294;51.106;7.028;2022-08-21T05:47:05;4.22;;;4.03;;
18336;SDS011;9294;51.106;7.028;2022-08-21T05:49:33;4.07;;;3.88;;
18336;SDS011;9294;51.106;7.028;2022-08-21T05:52:00;4.93;;;4.55;;
18336;SDS011;9294;51.106;7.028;2022-08-21T05:54:28;6.60;;;5.95;;
18336;SDS011;9294;51.106;7.028;2022-08-21T05:56:56;6.72;;;6.15;;
18336;SDS011;9294;51.106;7.028;2022-08-21T05:59:23;7.65;;;7.00;;
18336;SDS011;9294;51.106;7.028;2022-08-21T06:01:50;6.28;;;5.68;;
18336;SDS011;9294;51.106;7.028;2022-08-21T06:04:18;8.73;;;5.40;;
18336;SDS011;9294;51.106;7.028;2022-08-21T06:06:45;6.72;;;5.97;;
18336;SDS011;9294;51.106;7.028;2022-08-21T06:09:13;7.22;;;6.00;;
18336;SDS011;9294;51.106;7.028;2022-08-21T06:11:40;9.15;;;6.07;;
18336;SDS011;9294;51.106;7.028;2022-08-21T06:14:08;7.65;;;5.72;;
18336;SDS011;9294;51.106;7.028;2022-08-21T06:16:35;8.15;;;6.80;;
18336;SDS011;9294;51.106;7.028;2022-08-21T06:19:02;7.10;;;6.20;;
18336;SDS011;9294;51.106;7.028;2022-08-21T06:21:29;7.03;;;5.75;;
18336;SDS011;9294;51.106;7.028;2022-08-21T06:23:56;6.38;;;5.88;;
18336;SDS011;9294;51.106;7.028;2022-08-21T06:26:23;8.10;;;7.18;;
18336;SDS011;9294;51.106;7.028;2022-08-21T06:28:50;8.65;;;6.38;;
18336;SDS011;9294;51.106;7.028;2022-08-21T06:31:20;7.45;;;6.75;;
18336;SDS011;9294;51.106;7.028;2022-08-21T06:33:49;6.50;;;5.88;;
18336;SDS011;9294;51.106;7.028;2022-08-21T06:36:16;7.82;;;6.07;;
18336;SDS011;9294;51.106;7.028;2022-08-21T06:38:43;6.47;;;5.40;;
18336;SDS011;9294;51.106;7.028;2022-08-21T06:41:11;6.57;;;5.90;;
18336;SDS011;9294;51.106;7.028;2022-08-21T06:43:37;6.60;;;5.85;;
18336;SDS011;9294;51.106;7.028;2022-08-21T06:46:04;7.03;;;6.18;;
18336;SDS011;9294;51.106;7.028;2022-08-21T06:48:33;6.85;;;6.20;;
18336;SDS011;9294;51.106;7.028;2022-08-21T06:51:00;6.80;;;6.18;;
18336;SDS011;9294;51.106;7.028;2022-08-21T06:53:27;6.38;;;5.75;;
18336;SDS011;9294;51.106;7.028;2022-08-21T06:55:54;7.50;;;6.53;;
18336;SDS011;9294;51.106;7.028;2022-08-21T06:58:21;8.23;;;7.35;;
18336;SDS011;9294;51.106;7.028;2022-08-21T07:00:48;7.45;;;6.90;;
18336;SDS011;9294;51.106;7.028;2022-08-21T07:03:18;12.57;;;6.30;;
18336;SDS011;9294;51.106;7.028;2022-08-21T07:05:47;6.30;;;5.70;;
18336;SDS011;9294;51.106;7.028;2022-08-21T07:08:14;6.75;;;5.43;;
18336;SDS011;9294;51.106;7.028;2022-08-21T07:10:42;6.30;;;5.70;;
18336;SDS011;9294;51.106;7.028;2022-08-21T07:13:09;9.48;;;6.22;;
18336;SDS011;9294;51.106;7.028;2022-08-21T07:15:36;6.80;;;5.85;;
18336;SDS011;9294;51.106;7.028;2022-08-21T07:18:03;6.82;;;5.72;;
18336;SDS011;9294;51.106;7.028;2022-08-21T07:20:30;6.53;;;5.50;;
18336;SDS011;9294;51.106;7.028;2022-08-21T07:23:00;6.32;;;5.72;;
18336;SDS011;9294;51.106;7.028;2022-08-21T07:25:29;8.10;;;5.40;;
18336;SDS011;9294;51.106;7.028;2022-08-21T07:27:56;12.13;;;5.80;;
18336;SDS011;9294;51.106;7.028;2022-08-21T07:30:23;9.63;;;5.10;;
18336;SDS011;9294;51.106;7.028;2022-08-21T07:32:51;6.97;;;5.15;;
18336;SDS011;9294;51.106;7.028;2022-08-21T07:35:18;10.13;;;5.35;;
18336;SDS011;9294;51.106;7.028;2022-08-21T07:37:46;6.45;;;5.35;;
18336;SDS011;9294;51.106;7.028;2022-08-21T07:40:15;6.57;;;4.72;;
18336;SDS011;9294;51.106;7.028;2022-08-21T07:42:42;8.98;;;5.25;;
18336;SDS011;9294;51.106;7.028;2022-08-21T07:45:11;6.88;;;5.15;;
18336;SDS011;9294;51.106;7.028;2022-08-21T07:47:38;9.20;;;5.57;;
18336;SDS011;9294;51.106;7.028;2022-08-21T07:50:06;7.18;;;4.60;;
18336;SDS011;9294;51.106;7.028;2022-08-21T07:52:33;7.53;;;5.65;;
18336;SDS011;9294;51.106;7.028;2022-08-21T07:55:00;6.78;;;4.90;;
18336;SDS011;9294;51.106;7.028;2022-08-21T07:57:28;7.00;;;4.68;;
18336;SDS011;9294;51.106;7.028;2022-08-21T07:59:55;5.20;;;4.72;;
18336;SDS011;9294;51.106;7.028;2022-08-21T08:02:22;5.50;;;4.90;;
18336;SDS011;9294;51.106;7.028;2022-08-21T08:04:50;5.68;;;5.18;;
18336;SDS011;9294;51.106;7.028;2022-08-21T08:07:17;6.25;;;5.22;;
18336;SDS011;9294;51.106;7.028;2022-08-21T08:09:44;6.60;;;5.32;;
18336;SDS011;9294;51.106;7.028;2022-08-21T08:12:11;5.32;;;4.57;;
18336;SDS011;9294;51.106;7.028;2022-08-21T08:14:39;6.63;;;4.47;;
18336;SDS011;9294;51.106;7.028;2022-08-21T08:17:06;5.25;;;4.30;;
18336;SDS011;9294;51.106;7.028;2022-08-21T08:19:33;5.03;;;4.50;;
18336;SDS011;9294;51.106;7.028;2022-08-21T08:22:00;5.97;;;4.38;;
18336;SDS011;9294;51.106;7.028;2022-08-21T08:24:27;5.70;;;5.00;;
18336;SDS011;9294;51.106;7.028;2022-08-21T08:26:55;4.78;;;4.30;;
18336;SDS011;9294;51.106;7.028;2022-08-21T08:29:22;7.68;;;4.80;;
18336;SDS011;9294;51.106;7.028;2022-08-21T08:31:50;4.53;;;4.13;;
18336;SDS011;9294;51.106;7.028;2022-08-21T08:34:17;5.47;;;4.97;;
18336;SDS011;9294;51.106;7.028;2022-08-21T08:36:46;5.22;;;4.25;;
18336;SDS011;9294;51.106;7.028;2022-08-21T08:39:13;4.57;;;4.25;;
18336;SDS011;9294;51.106;7.028;2022-08-21T08:41:40;4.85;;;4.45;;
18336;SDS011;9294;51.106;7.028;2022-08-21T08:44:07;4.13;;;3.92;;
18336;SDS011;9294;51.106;7.028;2022-08-21T08:46:36;4.97;;;4.15;;
18336;SDS011;9294;51.106;7.028;2022-08-21T08:49:09;5.20;;;4.25;;
18336;SDS011;9294;51.106;7.028;2022-08-21T08:51:41;5.15;;;3.92;;
18336;SDS011;9294;51.106;7.028;2022-08-21T08:54:11;4.45;;;4.05;;
18336;SDS011;9294;51.106;7.028;2022-08-21T08:56:43;5.10;;;4.63;;
18336;SDS011;9294;51.106;7.028;2022-08-21T08:59:13;5.55;;;4.60;;
18336;SDS011;9294;51.106;7.028;2022-08-21T09:01:43;4.57;;;4.18;;
18336;SDS011;9294;51.106;7.028;2022-08-21T09:04:11;4.40;;;4.00;;
18336;SDS011;9294;51.106;7.028;2022-08-21T09:06:49;4.60;;;4.30;;
18336;SDS011;9294;51.106;7.028;2022-08-21T09:09:30;4.95;;;4.55;;
18336;SDS011;9294;51.106;7.028;2022-08-21T09:12:09;4.78;;;4.40;;
18336;SDS011;9294;51.106;7.028;2022-08-21T09:14:54;4.85;;;4.40;;
18336;SDS011;9294;51.106;7.028;2022-08-21T09:17:30;4.95;;;4.50;;
18336;SDS011;9294;51.106;7.028;2022-08-21T09:20:08;4.53;;;4.20;;
18336;SDS011;9294;51.106;7.028;2022-08-21T09:22:46;4.10;;;3.70;;
18336;SDS011;9294;51.106;7.028;2022-08-21T09:25:17;4.20;;;3.95;;
18336;SDS011;9294;51.106;7.028;2022-08-21T09:27:48;4.40;;;4.03;;
18336;SDS011;9294;51.106;7.028;2022-08-21T09:30:15;4.03;;;3.83;;
18336;SDS011;9294;51.106;7.028;2022-08-21T09:32:42;5.00;;;3.97;;
18336;SDS011;9294;51.106;7.028;2022-08-21T09:35:12;4.00;;;3.70;;
18336;SDS011;9294;51.106;7.028;2022-08-21T09:37:46;4.65;;;4.40;;
18336;SDS011;9294;51.106;7.028;2022-08-21T09:40:20;4.05;;;3.75;;
18336;SDS011;9294;51.106;7.028;2022-08-21T09:42:59;4.68;;;4.25;;
18336;SDS011;9294;51.106;7.028;2022-08-21T09:45:27;3.80;;;3.50;;
18336;SDS011;9294;51.106;7.028;2022-08-21T09:47:54;4.13;;;3.92;;
18336;SDS011;9294;51.106;7.028;2022-08-21T09:50:23;4.30;;;3.90;;
18336;SDS011;9294;51.106;7.028;2022-08-21T09:52:51;3.83;;;3.55;;
18336;SDS011;9294;51.106;7.028;2022-08-21T09:55:24;4.22;;;3.92;;
18336;SDS011;9294;51.106;7.028;2022-08-21T09:58:10;5.03;;;4.60;;
18336;SDS011;9294;51.106;7.028;2022-08-21T10:00:37;4.47;;;4.18;;
18336;SDS011;9294;51.106;7.028;2022-08-21T10:03:08;4.13;;;3.72;;
18336;SDS011;9294;51.106;7.028;2022-08-21T10:05:37;4.43;;;4.18;;
18336;SDS011;9294;51.106;7.028;2022-08-21T10:08:04;4.45;;;4.15;;
18336;SDS011;9294;51.106;7.028;2022-08-21T10:10:32;3.92;;;3.72;;
18336;SDS011;9294;51.106;7.028;2022-08-21T10:13:06;4.10;;;3.80;;
18336;SDS011;9294;51.106;7.028;2022-08-21T10:15:40;5.05;;;3.78;;
18336;SDS011;9294;51.106;7.028;2022-08-21T10:18:18;4.15;;;3.90;;
18336;SDS011;9294;51.106;7.028;2022-08-21T10:20:52;4.78;;;4.35;;
18336;SDS011;9294;51.106;7.028;2022-08-21T10:23:34;3.90;;;3.60;;
18336;SDS011;9294;51.106;7.028;2022-08-21T10:26:09;4.15;;;3.95;;
18336;SDS011;9294;51.106;7.028;2022-08-21T10:28:47;4.18;;;3.80;;
18336;SDS011;9294;51.106;7.028;2022-08-21T10:31:18;3.92;;;3.63;;
18336;SDS011;9294;51.106;7.028;2022-08-21T10:33:56;4.13;;;3.72;;
18336;SDS011;9294;51.106;7.028;2022-08-21T10:36:35;3.95;;;3.75;;
18336;SDS011;9294;51.106;7.028;2022-08-21T10:39:07;4.07;;;3.78;;
18336;SDS011;9294;51.106;7.028;2022-08-21T10:41:42;4.38;;;4.07;;
18336;SDS011;9294;51.106;7.028;2022-08-21T10:44:19;4.43;;;4.13;;
18336;SDS011;9294;51.106;7.028;2022-08-21T10:46:54;4.05;;;3.75;;
18336;SDS011;9294;51.106;7.028;2022-08-21T10:49:29;4.15;;;3.88;;
18336;SDS011;9294;51.106;7.028;2022-08-21T10:52:12;3.65;;;3.45;;
18336;SDS011;9294;51.106;7.028;2022-08-21T10:54:45;4.55;;;3.83;;
18336;SDS011;9294;51.106;7.028;2022-08-21T10:57:16;5.53;;;3.67;;
18336;SDS011;9294;51.106;7.028;2022-08-21T10:59:46;4.07;;;3.78;;
18336;SDS011;9294;51.106;7.028;2022-08-21T11:02:19;4.25;;;3.70;;
18336;SDS011;9294;51.106;7.028;2022-08-21T11:04:52;4.75;;;3.38;;
18336;SDS011;9294;51.106;7.028;2022-08-21T11:07:24;3.90;;;3.70;;
18336;SDS011;9294;51.106;7.028;2022-08-21T11:09:54;3.63;;;3.20;;
18336;SDS011;9294;51.106;7.028;2022-08-21T11:12:23;3.70;;;3.40;;
18336;SDS011;9294;51.106;7.028;2022-08-21T11:14:52;3.83;;;3.53;;
18336;SDS011;9294;51.106;7.028;2022-08-21T11:17:22;3.53;;;3.33;;
18336;SDS011;9294;51.106;7.028;2022-08-21T11:19:52;3.33;;;3.13;;
18336;SDS011;9294;51.106;7.028;2022-08-21T11:22:28;10.98;;;4.50;;
18336;SDS011;9294;51.106;7.028;2022-08-21T11:25:03;3.75;;;3.30;;
18336;SDS011;9294;51.106;7.028;2022-08-21T11:27:33;3.78;;;3.10;;
18336;SDS011;9294;51.106;7.028;2022-08-21T11:30:03;3.97;;;3.08;;
18336;SDS011;9294;51.106;7.028;2022-08-21T11:32:38;3.88;;;3.35;;
18336;SDS011;9294;51.106;7.028;2022-08-21T11:35:10;3.92;;;3.20;;
18336;SDS011;9294;51.106;7.028;2022-08-21T11:37:45;5.47;;;3.45;;
18336;SDS011;9294;51.106;7.028;2022-08-21T11:40:24;7.18;;;3.28;;
18336;SDS011;9294;51.106;7.028;2022-08-21T11:42:54;4.07;;;3.25;;
18336;SDS011;9294;51.106;7.028;2022-08-21T11:45:43;8.75;;;3.40;;
18336;SDS011;9294;51.106;7.028;2022-08-21T11:48:13;6.57;;;4.28;;
18336;SDS011;9294;51.106;7.028;2022-08-21T11:50:58;6.45;;;3.80;;
18336;SDS011;9294;51.106;7.028;2022-08-21T11:53:30;7.78;;;4.38;;
18336;SDS011;9294;51.106;7.028;2022-08-21T11:56:00;8.05;;;5.53;;
18336;SDS011;9294;51.106;7.028;2022-08-21T11:58:30;9.13;;;5.70;;
18336;SDS011;9294;51.106;7.028;2022-08-21T12:00:58;9.10;;;5.38;;
18336;SDS011;9294;51.106;7.028;2022-08-21T12:03:28;9.07;;;5.90;;
18336;SDS011;9294;51.106;7.028;2022-08-21T12:05:56;10.77;;;5.72;;
18336;SDS011;9294;51.106;7.028;2022-08-21T12:08:28;9.38;;;5.72;;
18336;SDS011;9294;51.106;7.028;2022-08-21T12:11:01;11.88;;;5.57;;
18336;SDS011;9294;51.106;7.028;2022-08-21T12:13:32;10.75;;;5.00;;
18336;SDS011;9294;51.106;7.028;2022-08-21T12:16:08;10.23;;;5.50;;
18336;SDS011;9294;51.106;7.028;2022-08-21T12:18:35;10.18;;;4.70;;
18336;SDS011;9294;51.106;7.028;2022-08-21T12:21:04;8.73;;;4.60;;
18336;SDS011;9294;51.106;7.028;2022-08-21T12:23:44;10.45;;;4.63;;
18336;SDS011;9294;51.106;7.028;2022-08-21T12:26:21;5.53;;;3.85;;
18336;SDS011;9294;51.106;7.028;2022-08-21T12:28:49;6.70;;;4.45;;
18336;SDS011;9294;51.106;7.028;2022-08-21T12:31:17;10.15;;;4.82;;
18336;SDS011;9294;51.106;7.028;2022-08-21T12:33:49;8.68;;;4.25;;
18336;SDS011;9294;51.106;7.028;2022-08-21T12:36:20;6.53;;;4.10;;
18336;SDS011;9294;51.106;7.028;2022-08-21T12:38:51;6.43;;;4.35;;
18336;SDS011;9294;51.106;7.028;2022-08-21T12:41:21;10.73;;;5.07;;
18336;SDS011;9294;51.106;7.028;2022-08-21T12:43:56;9.32;;;4.32;;
18336;SDS011;9294;51.106;7.028;2022-08-21T12:46:28;5.97;;;4.32;;
18336;SDS011;9294;51.106;7.028;2022-08-21T12:49:03;6.22;;;4.10;;
18336;SDS011;9294;51.106;7.028;2022-08-21T12:51:42;5.70;;;3.47;;
18336;SDS011;9294;51.106;7.028;2022-08-21T12:54:22;6.57;;;3.72;;
18336;SDS011;9294;51.106;7.028;2022-08-21T12:56:56;6.25;;;3.92;;
18336;SDS011;9294;51.106;7.028;2022-08-21T12:59:24;10.63;;;3.30;;
18336;SDS011;9294;51.106;7.028;2022-08-21T13:01:51;7.47;;;3.30;;
18336;SDS011;9294;51.106;7.028;2022-08-21T13:04:21;6.10;;;3.63;;
18336;SDS011;9294;51.106;7.028;2022-08-21T13:06:49;9.90;;;3.65;;
18336;SDS011;9294;51.106;7.028;2022-08-21T13:09:20;7.72;;;3.63;;
18336;SDS011;9294;51.106;7.028;2022-08-21T13:11:51;4.60;;;4.07;;
18336;SDS011;9294;51.106;7.028;2022-08-21T13:14:23;8.88;;;3.38;;
18336;SDS011;9294;51.106;7.028;2022-08-21T13:16:52;7.93;;;4.35;;
18336;SDS011;9294;51.106;7.028;2022-08-21T13:19:20;6.90;;;4.35;;
18336;SDS011;9294;51.106;7.028;2022-08-21T13:21:47;5.38;;;3.63;;
18336;SDS011;9294;51.106;7.028;2022-08-21T13:24:15;7.68;;;3.60;;
18336;SDS011;9294;51.106;7.028;2022-08-21T13:26:42;5.25;;;3.60;;
18336;SDS011;9294;51.106;7.028;2022-08-21T13:29:11;9.45;;;4.18;;
18336;SDS011;9294;51.106;7.028;2022-08-21T13:31:42;6.05;;;3.70;;
18336;SDS011;9294;51.106;7.028;2022-08-21T13:34:14;4.35;;;3.85;;
18336;SDS011;9294;51.106;7.028;2022-08-21T13:36:42;5.75;;;3.80;;
18336;SDS011;9294;51.106;7.028;2022-08-21T13:39:11;4.18;;;3.25;;
18336;SDS011;9294;51.106;7.028;2022-08-21T13:41:41;6.95;;;3.72;;
18336;SDS011;9294;51.106;7.028;2022-08-21T13:44:14;6.65;;;3.67;;
18336;SDS011;9294;51.106;7.028;2022-08-21T13:46:43;6.22;;;3.28;;
18336;SDS011;9294;51.106;7.028;2022-08-21T13:49:12;7.28;;;4.38;;
18336;SDS011;9294;51.106;7.028;2022-08-21T13:51:41;5.97;;;4.25;;
18336;SDS011;9294;51.106;7.028;2022-08-21T13:54:15;6.88;;;3.83;;
18336;SDS011;9294;51.106;7.028;2022-08-21T13:56:48;9.18;;;3.83;;
18336;SDS011;9294;51.106;7.028;2022-08-21T13:59:23;8.52;;;4.28;;
18336;SDS011;9294;51.106;7.028;2022-08-21T14:01:52;5.15;;;3.88;;
18336;SDS011;9294;51.106;7.028;2022-08-21T14:04:25;4.07;;;3.72;;
18336;SDS011;9294;51.106;7.028;2022-08-21T14:06:57;5.15;;;3.92;;
18336;SDS011;9294;51.106;7.028;2022-08-21T14:09:26;6.00;;;3.97;;
18336;SDS011;9294;51.106;7.028;2022-08-21T14:11:56;8.45;;;4.05;;
18336;SDS011;9294;51.106;7.028;2022-08-21T14:14:25;6.35;;;3.65;;
18336;SDS011;9294;51.106;7.028;2022-08-21T14:16:55;5.15;;;3.47;;
18336;SDS011;9294;51.106;7.028;2022-08-21T14:19:23;7.70;;;4.07;;
18336;SDS011;9294;51.106;7.028;2022-08-21T14:21:50;6.78;;;4.43;;
18336;SDS011;9294;51.106;7.028;2022-08-21T14:24:25;7.45;;;3.72;;
18336;SDS011;9294;51.106;7.028;2022-08-21T14:26:54;5.15;;;3.83;;
18336;SDS011;9294;51.106;7.028;2022-08-21T14:29:22;4.18;;;3.38;;
18336;SDS011;9294;51.106;7.028;2022-08-21T14:31:54;4.93;;;3.92;;
18336;SDS011;9294;51.106;7.028;2022-08-21T14:34:21;5.28;;;3.83;;
18336;SDS011;9294;51.106;7.028;2022-08-21T14:36:49;5.32;;;3.72;;
18336;SDS011;9294;51.106;7.028;2022-08-21T14:39:16;3.53;;;3.13;;
18336;SDS011;9294;51.106;7.028;2022-08-21T14:41:43;5.20;;;3.35;;
18336;SDS011;9294;51.106;7.028;2022-08-21T14:44:13;4.22;;;3.40;;
18336;SDS011;9294;51.106;7.028;2022-08-21T14:46:40;3.83;;;3.05;;
18336;SDS011;9294;51.106;7.028;2022-08-21T14:49:09;4.43;;;3.83;;
18336;SDS011;9294;51.106;7.028;2022-08-21T14:51:36;5.28;;;3.47;;
18336;SDS011;9294;51.106;7.028;2022-08-21T14:54:03;3.95;;;3.47;;
18336;SDS011;9294;51.106;7.028;2022-08-21T14:56:31;4.50;;;3.95;;
18336;SDS011;9294;51.106;7.028;2022-08-21T14:58:59;7.18;;;4.07;;
18336;SDS011;9294;51.106;7.028;2022-08-21T15:01:27;6.00;;;3.08;;
18336;SDS011;9294;51.106;7.028;2022-08-21T15:03:54;3.25;;;2.95;;
18336;SDS011;9294;51.106;7.028;2022-08-21T15:06:23;4.40;;;3.00;;
18336;SDS011;9294;51.106;7.028;2022-08-21T15:08:49;5.45;;;3.20;;
18336;SDS011;9294;51.106;7.028;2022-08-21T15:11:17;4.88;;;3.10;;
18336;SDS011;9294;51.106;7.028;2022-08-21T15:13:45;3.50;;;3.05;;